sensor_id;sensor_type;location;lat;lon;timestamp;temperature;humidity
24686;DHT22;12804;51.176;4.452;2023-03-23T00:00:47;13.20;99.90
24686;DHT22;12804;51.176;4.452;2023-03-23T00:03:13;13.20;99.90
24686;DHT22;12804;51.176;4.452;2023-03-23T00:05:39;13.20;99.90
24686;DHT22;12804;51.176;4.452;2023-03-23T00:08:07;13.20;99.90
24686;DHT22;12804;51.176;4.452;2023-03-23T00:10:38;13.20;99.90
24686;DHT22;12804;51.176;4.452;2023-03-23T00:13:04;13.30;99.90
24686;DHT22;12804;51.176;4.452;2023-03-23T00:15:30;13.20;99.90
24686;DHT22;12804;51.176;4.452;2023-03-23T00:18:01;13.20;99.90
24686;DHT22;12804;51.176;4.452;2023-03-23T00:20:30;13.20;99.90
24686;DHT22;12804;51.176;4.452;2023-03-23T00:23:02;13.20;99.90
24686;DHT22;12804;51.176;4.452;2023-03-23T00:25:29;13.20;99.90
24686;DHT22;12804;51.176;4.452;2023-03-23T00:27:55;13.20;99.90
24686;DHT22;12804;51.176;4.452;2023-03-23T00:30:22;13.20;99.90
24686;DHT22;12804;51.176;4.452;2023-03-23T00:32:48;13.20;99.90
24686;DHT22;12804;51.176;4.452;2023-03-23T00:35:14;13.20;99.90
24686;DHT22;12804;51.176;4.452;2023-03-23T00:37:40;13.20;99.90
24686;DHT22;12804;51.176;4.452;2023-03-23T00:40:06;13.20;99.90
24686;DHT22;12804;51.176;4.452;2023-03-23T00:42:36;13.20;99.90
24686;DHT22;12804;51.176;4.452;2023-03-23T00:45:04;13.20;99.90
24686;DHT22;12804;51.176;4.452;2023-03-23T00:47:39;13.20;99.90
24686;DHT22;12804;51.176;4.452;2023-03-23T00:50:07;13.20;99.90
24686;DHT22;12804;51.176;4.452;2023-03-23T00:52:34;13.10;99.90
24686;DHT22;12804;51.176;4.452;2023-03-23T00:55:00;13.20;99.90
24686;DHT22;12804;51.176;4.452;2023-03-23T00:57:26;13.20;99.90
24686;DHT22;12804;51.176;4.452;2023-03-23T00:59:51;13.20;99.90
24686;DHT22;12804;51.176;4.452;2023-03-23T01:02:17;13.20;99.90
24686;DHT22;12804;51.176;4.452;2023-03-23T01:04:46;13.20;99.90
24686;DHT22;12804;51.176;4.452;2023-03-23T01:07:12;13.20;99.90
24686;DHT22;12804;51.176;4.452;2023-03-23T01:09:43;13.20;99.90
24686;DHT22;12804;51.176;4.452;2023-03-23T01:12:11;13.20;99.90
24686;DHT22;12804;51.176;4.452;2023-03-23T01:14:38;13.20;99.90
24686;DHT22;12804;51.176;4.452;2023-03-23T01:17:04;13.20;99.90
24686;DHT22;12804;51.176;4.452;2023-03-23T01:19:30;13.20;99.90
24686;DHT22;12804;51.176;4.452;2023-03-23T01:21:56;13.20;99.90
24686;DHT22;12804;51.176;4.452;2023-03-23T01:24:21;13.20;99.90
24686;DHT22;12804;51.176;4.452;2023-03-23T01:26:48;13.30;99.90
24686;DHT22;12804;51.176;4.452;2023-03-23T01:29:15;13.30;99.90
24686;DHT22;12804;51.176;4.452;2023-03-23T01:31:41;13.30;99.90
24686;DHT22;12804;51.176;4.452;2023-03-23T01:34:08;13.30;99.90
24686;DHT22;12804;51.176;4.452;2023-03-23T01:36:36;13.20;99.90
24686;DHT22;12804;51.176;4.452;2023-03-23T01:39:04;13.30;99.90
24686;DHT22;12804;51.176;4.452;2023-03-23T01:41:32;13.20;99.90
24686;DHT22;12804;51.176;4.452;2023-03-23T01:46:55;13.20;99.90
24686;DHT22;12804;51.176;4.452;2023-03-23T01:49:27;13.30;99.90
24686;DHT22;12804;51.176;4.452;2023-03-23T01:51:56;13.20;99.90
24686;DHT22;12804;51.176;4.452;2023-03-23T01:54:24;13.30;99.90
24686;DHT22;12804;51.176;4.452;2023-03-23T01:57:37;13.20;99.90
24686;DHT22;12804;51.176;4.452;2023-03-23T01:59:48;13.20;99.90
24686;DHT22;12804;51.176;4.452;2023-03-23T02:02:35;13.20;99.90
24686;DHT22;12804;51.176;4.452;2023-03-23T02:05:11;13.20;99.90
24686;DHT22;12804;51.176;4.452;2023-03-23T02:07:37;13.20;99.90
24686;DHT22;12804;51.176;4.452;2023-03-23T02:10:05;13.20;99.90
24686;DHT22;12804;51.176;4.452;2023-03-23T02:12:33;13.20;99.90
24686;DHT22;12804;51.176;4.452;2023-03-23T02:15:00;13.20;99.90
24686;DHT22;12804;51.176;4.452;2023-03-23T02:17:48;13.20;99.90
24686;DHT22;12804;51.176;4.452;2023-03-23T02:20:36;13.20;99.90
24686;DHT22;12804;51.176;4.452;2023-03-23T02:31:19;13.20;99.90
24686;DHT22;12804;51.176;4.452;2023-03-23T02:34:00;13.20;99.90
24686;DHT22;12804;51.176;4.452;2023-03-23T02:39:21;13.20;99.90
24686;DHT22;12804;51.176;4.452;2023-03-23T02:41:54;13.20;99.90
24686;DHT22;12804;51.176;4.452;2023-03-23T02:44:22;13.20;99.90
24686;DHT22;12804;51.176;4.452;2023-03-23T02:46:52;13.10;99.90
24686;DHT22;12804;51.176;4.452;2023-03-23T02:49:19;13.10;99.90
24686;DHT22;12804;51.176;4.452;2023-03-23T02:51:47;13.10;99.90
24686;DHT22;12804;51.176;4.452;2023-03-23T02:54:15;13.10;99.90
24686;DHT22;12804;51.176;4.452;2023-03-23T02:56:43;13.10;99.90
24686;DHT22;12804;51.176;4.452;2023-03-23T02:59:17;13.10;99.90
24686;DHT22;12804;51.176;4.452;2023-03-23T03:04:14;13.00;99.90
24686;DHT22;12804;51.176;4.452;2023-03-23T03:09:19;13.00;99.90
24686;DHT22;12804;51.176;4.452;2023-03-23T03:11:56;13.00;99.90
24686;DHT22;12804;51.176;4.452;2023-03-23T03:14:32;13.00;99.90
24686;DHT22;12804;51.176;4.452;2023-03-23T03:17:24;13.00;99.90
24686;DHT22;12804;51.176;4.452;2023-03-23T03:19:56;13.00;99.90
24686;DHT22;12804;51.176;4.452;2023-03-23T03:22:26;13.00;99.90
24686;DHT22;12804;51.176;4.452;2023-03-23T03:24:58;13.10;99.90
24686;DHT22;12804;51.176;4.452;2023-03-23T03:27:25;13.10;99.90
24686;DHT22;12804;51.176;4.452;2023-03-23T03:30:14;13.10;99.90
24686;DHT22;12804;51.176;4.452;2023-03-23T03:32:47;13.10;99.70
24686;DHT22;12804;51.176;4.452;2023-03-23T03:35:16;13.10;99.10
24686;DHT22;12804;51.176;4.452;2023-03-23T03:37:43;13.10;99.00
24686;DHT22;12804;51.176;4.452;2023-03-23T03:40:11;13.10;99.20
24686;DHT22;12804;51.176;4.452;2023-03-23T03:42:40;13.10;99.10
24686;DHT22;12804;51.176;4.452;2023-03-23T03:45:10;13.10;98.90
24686;DHT22;12804;51.176;4.452;2023-03-23T03:47:36;13.10;99.30
24686;DHT22;12804;51.176;4.452;2023-03-23T03:50:03;13.10;98.40
24686;DHT22;12804;51.176;4.452;2023-03-23T03:52:30;13.10;99.10
24686;DHT22;12804;51.176;4.452;2023-03-23T03:54:57;13.00;98.90
24686;DHT22;12804;51.176;4.452;2023-03-23T03:57:23;13.00;99.00
24686;DHT22;12804;51.176;4.452;2023-03-23T03:59:58;13.00;99.30
24686;DHT22;12804;51.176;4.452;2023-03-23T04:02:46;13.00;99.80
24686;DHT22;12804;51.176;4.452;2023-03-23T04:05:58;13.00;99.80
24686;DHT22;12804;51.176;4.452;2023-03-23T04:08:25;13.00;99.90
24686;DHT22;12804;51.176;4.452;2023-03-23T04:10:53;13.00;99.90
24686;DHT22;12804;51.176;4.452;2023-03-23T04:13:20;13.00;99.90
24686;DHT22;12804;51.176;4.452;2023-03-23T04:16:04;13.00;99.90
24686;DHT22;12804;51.176;4.452;2023-03-23T04:18:32;13.00;99.90
24686;DHT22;12804;51.176;4.452;2023-03-23T04:20:59;13.00;99.90
24686;DHT22;12804;51.176;4.452;2023-03-23T04:23:27;13.00;99.90
24686;DHT22;12804;51.176;4.452;2023-03-23T04:25:53;13.00;99.90
24686;DHT22;12804;51.176;4.452;2023-03-23T04:28:26;12.90;99.90
24686;DHT22;12804;51.176;4.452;2023-03-23T04:31:13;12.70;99.90
24686;DHT22;12804;51.176;4.452;2023-03-23T04:33:44;12.60;99.90
24686;DHT22;12804;51.176;4.452;2023-03-23T04:36:13;12.40;99.90
24686;DHT22;12804;51.176;4.452;2023-03-23T04:38:49;12.30;99.90
24686;DHT22;12804;51.176;4.452;2023-03-23T04:41:24;12.30;99.90
24686;DHT22;12804;51.176;4.452;2023-03-23T04:44:03;12.30;99.90
24686;DHT22;12804;51.176;4.452;2023-03-23T04:46:35;12.30;99.90
24686;DHT22;12804;51.176;4.452;2023-03-23T04:49:07;12.30;99.90
24686;DHT22;12804;51.176;4.452;2023-03-23T04:51:36;12.30;99.90
24686;DHT22;12804;51.176;4.452;2023-03-23T04:54:33;12.40;99.90
24686;DHT22;12804;51.176;4.452;2023-03-23T04:57:00;12.40;99.90
24686;DHT22;12804;51.176;4.452;2023-03-23T04:59:27;12.50;99.90
24686;DHT22;12804;51.176;4.452;2023-03-23T05:02:14;12.60;99.90
24686;DHT22;12804;51.176;4.452;2023-03-23T05:04:45;12.60;99.90
24686;DHT22;12804;51.176;4.452;2023-03-23T05:07:14;12.60;99.90
24686;DHT22;12804;51.176;4.452;2023-03-23T05:09:54;12.60;99.90
24686;DHT22;12804;51.176;4.452;2023-03-23T05:12:26;12.60;99.90
24686;DHT22;12804;51.176;4.452;2023-03-23T05:14:56;12.60;99.90
24686;DHT22;12804;51.176;4.452;2023-03-23T05:17:25;12.60;99.90
24686;DHT22;12804;51.176;4.452;2023-03-23T05:19:54;12.60;99.90
24686;DHT22;12804;51.176;4.452;2023-03-23T05:22:42;12.70;99.90
24686;DHT22;12804;51.176;4.452;2023-03-23T05:25:10;12.70;99.90
24686;DHT22;12804;51.176;4.452;2023-03-23T05:27:41;12.60;99.90
24686;DHT22;12804;51.176;4.452;2023-03-23T05:30:21;12.60;99.90
24686;DHT22;12804;51.176;4.452;2023-03-23T05:32:48;12.60;99.90
24686;DHT22;12804;51.176;4.452;2023-03-23T05:35:49;12.50;99.90
24686;DHT22;12804;51.176;4.452;2023-03-23T05:38:19;12.50;99.90
24686;DHT22;12804;51.176;4.452;2023-03-23T05:40:46;12.50;99.90
24686;DHT22;12804;51.176;4.452;2023-03-23T05:43:17;12.60;99.90
24686;DHT22;12804;51.176;4.452;2023-03-23T05:46:02;12.60;99.90
24686;DHT22;12804;51.176;4.452;2023-03-23T05:48:30;12.60;99.90
24686;DHT22;12804;51.176;4.452;2023-03-23T05:50:56;12.50;99.90
24686;DHT22;12804;51.176;4.452;2023-03-23T05:53:23;12.40;99.90
24686;DHT22;12804;51.176;4.452;2023-03-23T05:55:49;12.30;99.90
24686;DHT22;12804;51.176;4.452;2023-03-23T05:58:33;12.10;99.90
24686;DHT22;12804;51.176;4.452;2023-03-23T06:00:59;12.00;99.90
24686;DHT22;12804;51.176;4.452;2023-03-23T06:03:28;11.80;99.90
24686;DHT22;12804;51.176;4.452;2023-03-23T06:06:12;11.70;99.90
24686;DHT22;12804;51.176;4.452;2023-03-23T06:08:56;11.60;99.90
24686;DHT22;12804;51.176;4.452;2023-03-23T06:11:35;11.50;99.90
24686;DHT22;12804;51.176;4.452;2023-03-23T06:14:28;11.40;99.90
24686;DHT22;12804;51.176;4.452;2023-03-23T06:16:54;11.40;99.90
24686;DHT22;12804;51.176;4.452;2023-03-23T06:19:20;11.40;99.90
24686;DHT22;12804;51.176;4.452;2023-03-23T06:21:55;11.40;99.90
24686;DHT22;12804;51.176;4.452;2023-03-23T06:24:42;11.40;99.90
24686;DHT22;12804;51.176;4.452;2023-03-23T06:27:07;11.30;99.90
24686;DHT22;12804;51.176;4.452;2023-03-23T06:29:35;11.40;99.90
24686;DHT22;12804;51.176;4.452;2023-03-23T06:32:04;11.40;99.90
24686;DHT22;12804;51.176;4.452;2023-03-23T06:34:31;11.40;99.90
24686;DHT22;12804;51.176;4.452;2023-03-23T06:37:24;11.40;99.90
24686;DHT22;12804;51.176;4.452;2023-03-23T06:40:19;11.60;99.90
24686;DHT22;12804;51.176;4.452;2023-03-23T06:42:52;11.50;99.90
24686;DHT22;12804;51.176;4.452;2023-03-23T06:45:33;11.20;99.90
24686;DHT22;12804;51.176;4.452;2023-03-23T06:48:18;11.20;99.90
24686;DHT22;12804;51.176;4.452;2023-03-23T06:50:45;10.90;99.90
24686;DHT22;12804;51.176;4.452;2023-03-23T06:53:14;10.80;99.90
24686;DHT22;12804;51.176;4.452;2023-03-23T06:55:43;10.70;99.90
24686;DHT22;12804;51.176;4.452;2023-03-23T06:58:09;10.70;99.90
24686;DHT22;12804;51.176;4.452;2023-03-23T07:00:35;10.60;99.90
24686;DHT22;12804;51.176;4.452;2023-03-23T07:03:01;10.50;99.90
24686;DHT22;12804;51.176;4.452;2023-03-23T07:05:27;10.50;99.90
24686;DHT22;12804;51.176;4.452;2023-03-23T07:07:54;10.50;99.90
24686;DHT22;12804;51.176;4.452;2023-03-23T07:10:33;10.50;99.90
24686;DHT22;12804;51.176;4.452;2023-03-23T07:12:59;10.40;99.90
24686;DHT22;12804;51.176;4.452;2023-03-23T07:15:29;10.40;99.90
24686;DHT22;12804;51.176;4.452;2023-03-23T07:17:56;10.30;99.90
24686;DHT22;12804;51.176;4.452;2023-03-23T07:20:38;10.30;99.90
24686;DHT22;12804;51.176;4.452;2023-03-23T07:23:04;10.30;99.90
24686;DHT22;12804;51.176;4.452;2023-03-23T07:25:43;10.30;99.90
24686;DHT22;12804;51.176;4.452;2023-03-23T07:28:15;10.20;99.90
24686;DHT22;12804;51.176;4.452;2023-03-23T07:30:41;10.20;99.90
24686;DHT22;12804;51.176;4.452;2023-03-23T07:33:09;10.20;99.90
24686;DHT22;12804;51.176;4.452;2023-03-23T07:35:37;10.10;99.90
24686;DHT22;12804;51.176;4.452;2023-03-23T07:38:08;10.10;99.90
24686;DHT22;12804;51.176;4.452;2023-03-23T07:40:36;10.10;99.90
24686;DHT22;12804;51.176;4.452;2023-03-23T07:43:11;10.10;99.90
24686;DHT22;12804;51.176;4.452;2023-03-23T07:46:06;10.30;99.90
24686;DHT22;12804;51.176;4.452;2023-03-23T07:48:42;10.10;99.90
24686;DHT22;12804;51.176;4.452;2023-03-23T07:51:09;10.00;99.90
24686;DHT22;12804;51.176;4.452;2023-03-23T07:53:35;10.10;99.90
24686;DHT22;12804;51.176;4.452;2023-03-23T07:56:21;10.00;99.90
24686;DHT22;12804;51.176;4.452;2023-03-23T07:59:03;10.10;99.90
24686;DHT22;12804;51.176;4.452;2023-03-23T08:01:30;10.20;99.90
24686;DHT22;12804;51.176;4.452;2023-03-23T08:04:35;10.20;99.90
24686;DHT22;12804;51.176;4.452;2023-03-23T08:07:27;10.20;99.90
24686;DHT22;12804;51.176;4.452;2023-03-23T08:10:14;10.30;99.90
24686;DHT22;12804;51.176;4.452;2023-03-23T08:12:58;10.40;99.90
24686;DHT22;12804;51.176;4.452;2023-03-23T08:15:44;10.40;99.90
24686;DHT22;12804;51.176;4.452;2023-03-23T08:18:30;10.40;99.90
24686;DHT22;12804;51.176;4.452;2023-03-23T08:21:15;10.40;99.90
24686;DHT22;12804;51.176;4.452;2023-03-23T08:23:41;10.40;99.90
24686;DHT22;12804;51.176;4.452;2023-03-23T08:26:25;10.40;99.90
24686;DHT22;12804;51.176;4.452;2023-03-23T08:29:24;10.50;99.90
24686;DHT22;12804;51.176;4.452;2023-03-23T08:32:15;10.60;99.90
24686;DHT22;12804;51.176;4.452;2023-03-23T08:34:44;10.60;99.90
24686;DHT22;12804;51.176;4.452;2023-03-23T08:37:30;10.70;99.90
24686;DHT22;12804;51.176;4.452;2023-03-23T08:40:11;10.70;99.90
24686;DHT22;12804;51.176;4.452;2023-03-23T08:42:56;10.80;99.90
24686;DHT22;12804;51.176;4.452;2023-03-23T08:45:41;10.80;99.90
24686;DHT22;12804;51.176;4.452;2023-03-23T08:48:27;10.90;99.90
24686;DHT22;12804;51.176;4.452;2023-03-23T08:51:12;11.00;99.90
24686;DHT22;12804;51.176;4.452;2023-03-23T08:53:41;11.00;99.90
24686;DHT22;12804;51.176;4.452;2023-03-23T08:56:45;11.10;99.90
24686;DHT22;12804;51.176;4.452;2023-03-23T08:59:44;11.20;99.90
24686;DHT22;12804;51.176;4.452;2023-03-23T09:02:24;11.30;99.90
24686;DHT22;12804;51.176;4.452;2023-03-23T09:05:17;11.40;99.90
24686;DHT22;12804;51.176;4.452;2023-03-23T09:08:01;11.30;99.90
24686;DHT22;12804;51.176;4.452;2023-03-23T09:10:29;11.30;99.90
24686;DHT22;12804;51.176;4.452;2023-03-23T09:12:56;11.30;99.90
24686;DHT22;12804;51.176;4.452;2023-03-23T09:15:23;11.50;99.90
24686;DHT22;12804;51.176;4.452;2023-03-23T09:17:50;11.60;99.90
24686;DHT22;12804;51.176;4.452;2023-03-23T09:20:20;11.60;99.90
24686;DHT22;12804;51.176;4.452;2023-03-23T09:22:51;11.70;99.90
24686;DHT22;12804;51.176;4.452;2023-03-23T09:25:20;11.80;99.90
24686;DHT22;12804;51.176;4.452;2023-03-23T09:27:49;11.80;99.90
24686;DHT22;12804;51.176;4.452;2023-03-23T09:30:19;11.80;99.90
24686;DHT22;12804;51.176;4.452;2023-03-23T09:32:46;11.90;99.90
24686;DHT22;12804;51.176;4.452;2023-03-23T09:35:15;11.90;99.90
24686;DHT22;12804;51.176;4.452;2023-03-23T09:37:44;12.10;99.90
24686;DHT22;12804;51.176;4.452;2023-03-23T09:40:14;12.30;99.90
24686;DHT22;12804;51.176;4.452;2023-03-23T09:45:29;12.20;99.90
24686;DHT22;12804;51.176;4.452;2023-03-23T09:50:32;12.40;99.90
24686;DHT22;12804;51.176;4.452;2023-03-23T09:53:00;12.60;99.90
24686;DHT22;12804;51.176;4.452;2023-03-23T09:55:26;12.70;99.90
24686;DHT22;12804;51.176;4.452;2023-03-23T10:00:41;12.80;99.90
24686;DHT22;12804;51.176;4.452;2023-03-23T10:03:18;13.00;99.90
24686;DHT22;12804;51.176;4.452;2023-03-23T10:05:47;13.40;99.90
24686;DHT22;12804;51.176;4.452;2023-03-23T10:08:18;13.40;99.90
24686;DHT22;12804;51.176;4.452;2023-03-23T10:10:50;13.60;99.90
24686;DHT22;12804;51.176;4.452;2023-03-23T10:16:24;14.10;98.60
24686;DHT22;12804;51.176;4.452;2023-03-23T10:21:30;13.90;99.90
24686;DHT22;12804;51.176;4.452;2023-03-23T10:24:00;14.20;98.40
24686;DHT22;12804;51.176;4.452;2023-03-23T10:28:56;13.60;99.90
24686;DHT22;12804;51.176;4.452;2023-03-23T10:31:31;13.70;99.90
24686;DHT22;12804;51.176;4.452;2023-03-23T10:34:08;13.80;99.90
24686;DHT22;12804;51.176;4.452;2023-03-23T10:37:02;13.80;99.90
24686;DHT22;12804;51.176;4.452;2023-03-23T10:39:37;14.20;99.30
24686;DHT22;12804;51.176;4.452;2023-03-23T10:42:03;14.10;98.30
24686;DHT22;12804;51.176;4.452;2023-03-23T10:44:33;13.90;99.90
24686;DHT22;12804;51.176;4.452;2023-03-23T10:47:02;14.20;99.30
24686;DHT22;12804;51.176;4.452;2023-03-23T10:49:38;14.10;96.60
24686;DHT22;12804;51.176;4.452;2023-03-23T10:55:02;14.00;95.50
24686;DHT22;12804;51.176;4.452;2023-03-23T10:57:32;13.80;95.90
24686;DHT22;12804;51.176;4.452;2023-03-23T11:02:41;14.00;97.30
24686;DHT22;12804;51.176;4.452;2023-03-23T11:05:18;14.00;95.90
24686;DHT22;12804;51.176;4.452;2023-03-23T11:07:50;14.10;97.10
24686;DHT22;12804;51.176;4.452;2023-03-23T11:10:38;14.20;94.60
24686;DHT22;12804;51.176;4.452;2023-03-23T11:13:04;14.30;94.30
24686;DHT22;12804;51.176;4.452;2023-03-23T11:15:44;14.40;93.60
24686;DHT22;12804;51.176;4.452;2023-03-23T11:18:39;14.60;92.60
24686;DHT22;12804;51.176;4.452;2023-03-23T11:21:06;14.50;85.70
24686;DHT22;12804;51.176;4.452;2023-03-23T11:23:33;14.30;93.90
24686;DHT22;12804;51.176;4.452;2023-03-23T11:26:28;14.50;92.80
24686;DHT22;12804;51.176;4.452;2023-03-23T11:29:06;14.70;87.70
24686;DHT22;12804;51.176;4.452;2023-03-23T11:31:43;14.90;80.90
24686;DHT22;12804;51.176;4.452;2023-03-23T11:36:53;15.20;76.80
24686;DHT22;12804;51.176;4.452;2023-03-23T11:39:32;15.40;64.30
24686;DHT22;12804;51.176;4.452;2023-03-23T11:42:02;15.60;65.60
24686;DHT22;12804;51.176;4.452;2023-03-23T11:44:43;15.70;52.80
24686;DHT22;12804;51.176;4.452;2023-03-23T11:47:26;16.20;44.40
24686;DHT22;12804;51.176;4.452;2023-03-23T11:53:06;17.30;24.70
24686;DHT22;12804;51.176;4.452;2023-03-23T11:58:12;17.40;17.80
24686;DHT22;12804;51.176;4.452;2023-03-23T12:00:55;17.10;18.50
24686;DHT22;12804;51.176;4.452;2023-03-23T12:11:33;17.40;1.00
24686;DHT22;12804;51.176;4.452;2023-03-23T12:14:28;17.20;1.00
24686;DHT22;12804;51.176;4.452;2023-03-23T12:17:28;17.70;1.00
24686;DHT22;12804;51.176;4.452;2023-03-23T12:20:40;18.00;1.00
24686;DHT22;12804;51.176;4.452;2023-03-23T12:23:11;17.70;1.00
24686;DHT22;12804;51.176;4.452;2023-03-23T12:31:08;17.40;1.00
24686;DHT22;12804;51.176;4.452;2023-03-23T12:36:24;16.40;1.00
24686;DHT22;12804;51.176;4.452;2023-03-23T12:42:13;16.00;25.20
24686;DHT22;12804;51.176;4.452;2023-03-23T12:44:46;16.10;20.50
24686;DHT22;12804;51.176;4.452;2023-03-23T12:50:24;16.70;1.00
24686;DHT22;12804;51.176;4.452;2023-03-23T12:53:13;17.40;1.00
24686;DHT22;12804;51.176;4.452;2023-03-23T12:55:50;17.80;1.00
24686;DHT22;12804;51.176;4.452;2023-03-23T12:58:28;17.20;1.00
24686;DHT22;12804;51.176;4.452;2023-03-23T13:01:19;16.70;1.00
24686;DHT22;12804;51.176;4.452;2023-03-23T13:03:56;17.50;1.00
24686;DHT22;12804;51.176;4.452;2023-03-23T13:06:40;17.50;1.00
24686;DHT22;12804;51.176;4.452;2023-03-23T13:11:43;16.80;1.00
24686;DHT22;12804;51.176;4.452;2023-03-23T13:27:59;16.40;1.00
24686;DHT22;12804;51.176;4.452;2023-03-23T13:30:27;15.80;12.20
24686;DHT22;12804;51.176;4.452;2023-03-23T13:33:03;15.30;50.00
24686;DHT22;12804;51.176;4.452;2023-03-23T13:35:35;14.60;82.80
24686;DHT22;12804;51.176;4.452;2023-03-23T13:38:12;14.20;93.20
24686;DHT22;12804;51.176;4.452;2023-03-23T13:40:43;13.90;92.50
24686;DHT22;12804;51.176;4.452;2023-03-23T13:43:09;13.70;99.60
24686;DHT22;12804;51.176;4.452;2023-03-23T13:45:46;13.40;99.90
24686;DHT22;12804;51.176;4.452;2023-03-23T13:50:51;13.40;99.90
24686;DHT22;12804;51.176;4.452;2023-03-23T13:56:13;14.50;99.90
24686;DHT22;12804;51.176;4.452;2023-03-23T13:58:51;15.60;78.70
24686;DHT22;12804;51.176;4.452;2023-03-23T14:01:38;15.40;73.90
24686;DHT22;12804;51.176;4.452;2023-03-23T14:04:13;15.20;84.20
24686;DHT22;12804;51.176;4.452;2023-03-23T14:06:40;15.20;78.90
24686;DHT22;12804;51.176;4.452;2023-03-23T14:09:17;15.00;74.50
24686;DHT22;12804;51.176;4.452;2023-03-23T14:11:51;15.00;84.50
24686;DHT22;12804;51.176;4.452;2023-03-23T14:14:28;14.80;79.80
24686;DHT22;12804;51.176;4.452;2023-03-23T14:20:06;13.80;98.80
24686;DHT22;12804;51.176;4.452;2023-03-23T14:22:38;13.20;99.90
24686;DHT22;12804;51.176;4.452;2023-03-23T14:25:16;12.80;99.90
24686;DHT22;12804;51.176;4.452;2023-03-23T14:27:43;12.50;99.90
24686;DHT22;12804;51.176;4.452;2023-03-23T14:30:23;12.40;99.90
24686;DHT22;12804;51.176;4.452;2023-03-23T14:33:02;12.40;99.90
24686;DHT22;12804;51.176;4.452;2023-03-23T14:35:34;12.50;99.90
24686;DHT22;12804;51.176;4.452;2023-03-23T14:38:01;13.20;99.90
24686;DHT22;12804;51.176;4.452;2023-03-23T14:40:28;14.80;99.90
24686;DHT22;12804;51.176;4.452;2023-03-23T14:42:56;15.70;93.10
24686;DHT22;12804;51.176;4.452;2023-03-23T14:45:23;17.10;70.30
24686;DHT22;12804;51.176;4.452;2023-03-23T14:47:58;16.50;64.00
24686;DHT22;12804;51.176;4.452;2023-03-23T14:50:35;15.30;82.30
24686;DHT22;12804;51.176;4.452;2023-03-23T14:55:48;14.30;99.90
24686;DHT22;12804;51.176;4.452;2023-03-23T14:58:17;14.50;99.90
24686;DHT22;12804;51.176;4.452;2023-03-23T15:00:54;14.70;99.90
24686;DHT22;12804;51.176;4.452;2023-03-23T15:03:21;14.40;99.90
24686;DHT22;12804;51.176;4.452;2023-03-23T15:05:57;14.10;99.90
24686;DHT22;12804;51.176;4.452;2023-03-23T15:08:26;13.90;99.90
24686;DHT22;12804;51.176;4.452;2023-03-23T15:13:45;13.90;99.90
24686;DHT22;12804;51.176;4.452;2023-03-23T15:18:57;13.80;99.90
24686;DHT22;12804;51.176;4.452;2023-03-23T15:21:33;13.60;99.90
24686;DHT22;12804;51.176;4.452;2023-03-23T15:24:01;13.60;99.90
24686;DHT22;12804;51.176;4.452;2023-03-23T15:29:17;14.10;99.90
24686;DHT22;12804;51.176;4.452;2023-03-23T15:31:53;14.30;99.90
24686;DHT22;12804;51.176;4.452;2023-03-23T15:34:24;14.70;99.90
24686;DHT22;12804;51.176;4.452;2023-03-23T15:37:21;15.60;91.40
24686;DHT22;12804;51.176;4.452;2023-03-23T15:39:50;16.20;64.10
24686;DHT22;12804;51.176;4.452;2023-03-23T15:42:31;16.00;67.80
24686;DHT22;12804;51.176;4.452;2023-03-23T15:45:05;15.40;71.40
24686;DHT22;12804;51.176;4.452;2023-03-23T15:52:41;15.20;91.20
24686;DHT22;12804;51.176;4.452;2023-03-23T15:55:29;15.40;90.70
24686;DHT22;12804;51.176;4.452;2023-03-23T15:58:01;15.40;79.80
24686;DHT22;12804;51.176;4.452;2023-03-23T16:00:30;15.50;83.10
24686;DHT22;12804;51.176;4.452;2023-03-23T16:03:10;15.50;81.50
24686;DHT22;12804;51.176;4.452;2023-03-23T16:05:37;15.60;84.20
24686;DHT22;12804;51.176;4.452;2023-03-23T16:08:03;15.50;77.20
24686;DHT22;12804;51.176;4.452;2023-03-23T16:10:29;15.40;76.30
24686;DHT22;12804;51.176;4.452;2023-03-23T16:12:55;15.30;91.60
24686;DHT22;12804;51.176;4.452;2023-03-23T16:15:21;15.20;79.40
24686;DHT22;12804;51.176;4.452;2023-03-23T16:17:47;15.10;83.80
24686;DHT22;12804;51.176;4.452;2023-03-23T16:20:18;15.00;91.10
24686;DHT22;12804;51.176;4.452;2023-03-23T16:22:45;15.00;91.20
24686;DHT22;12804;51.176;4.452;2023-03-23T16:25:12;14.80;88.90
24686;DHT22;12804;51.176;4.452;2023-03-23T16:27:38;14.40;98.50
24686;DHT22;12804;51.176;4.452;2023-03-23T16:30:16;14.10;99.90
24686;DHT22;12804;51.176;4.452;2023-03-23T16:32:43;13.90;99.90
24686;DHT22;12804;51.176;4.452;2023-03-23T16:35:09;13.80;99.90
24686;DHT22;12804;51.176;4.452;2023-03-23T16:37:35;13.80;99.90
24686;DHT22;12804;51.176;4.452;2023-03-23T16:40:02;13.90;99.90
24686;DHT22;12804;51.176;4.452;2023-03-23T16:42:28;13.90;99.90
24686;DHT22;12804;51.176;4.452;2023-03-23T16:44:54;14.00;99.90
24686;DHT22;12804;51.176;4.452;2023-03-23T16:47:21;13.90;99.90
24686;DHT22;12804;51.176;4.452;2023-03-23T16:49:51;14.00;99.90
24686;DHT22;12804;51.176;4.452;2023-03-23T16:52:17;14.10;99.90
24686;DHT22;12804;51.176;4.452;2023-03-23T16:54:43;14.10;99.90
24686;DHT22;12804;51.176;4.452;2023-03-23T16:57:10;14.00;99.90
24686;DHT22;12804;51.176;4.452;2023-03-23T16:59:36;14.00;99.90
24686;DHT22;12804;51.176;4.452;2023-03-23T17:02:02;14.00;99.90
24686;DHT22;12804;51.176;4.452;2023-03-23T17:04:29;14.00;99.90
24686;DHT22;12804;51.176;4.452;2023-03-23T17:06:56;14.00;99.90
24686;DHT22;12804;51.176;4.452;2023-03-23T17:09:27;14.10;99.90
24686;DHT22;12804;51.176;4.452;2023-03-23T17:11:53;14.20;99.70
24686;DHT22;12804;51.176;4.452;2023-03-23T17:14:20;14.30;95.20
24686;DHT22;12804;51.176;4.452;2023-03-23T17:16:46;14.40;96.00
24686;DHT22;12804;51.176;4.452;2023-03-23T17:19:12;14.40;94.70
24686;DHT22;12804;51.176;4.452;2023-03-23T17:21:41;14.40;91.70
24686;DHT22;12804;51.176;4.452;2023-03-23T17:24:08;14.50;89.80
24686;DHT22;12804;51.176;4.452;2023-03-23T17:26:34;14.40;82.40
24686;DHT22;12804;51.176;4.452;2023-03-23T17:29:02;14.40;84.90
24686;DHT22;12804;51.176;4.452;2023-03-23T17:31:27;14.40;82.20
24686;DHT22;12804;51.176;4.452;2023-03-23T17:33:53;14.40;76.30
24686;DHT22;12804;51.176;4.452;2023-03-23T17:36:22;14.40;79.40
24686;DHT22;12804;51.176;4.452;2023-03-23T17:38:48;14.50;76.30
24686;DHT22;12804;51.176;4.452;2023-03-23T17:41:13;14.50;75.30
24686;DHT22;12804;51.176;4.452;2023-03-23T17:43:39;14.50;73.60
24686;DHT22;12804;51.176;4.452;2023-03-23T17:46:06;14.40;74.80
24686;DHT22;12804;51.176;4.452;2023-03-23T17:48:32;14.40;71.60
24686;DHT22;12804;51.176;4.452;2023-03-23T17:50:58;14.40;75.70
24686;DHT22;12804;51.176;4.452;2023-03-23T17:53:28;14.40;70.20
24686;DHT22;12804;51.176;4.452;2023-03-23T17:55:55;14.40;72.40
24686;DHT22;12804;51.176;4.452;2023-03-23T17:58:22;14.50;66.60
24686;DHT22;12804;51.176;4.452;2023-03-23T18:00:49;14.50;70.50